sensor_id;sensor_type;location;lat;lon;timestamp;temperature;humidity
2851;DHT22;1433;49.976;8.342;2022-09-27T00:01:03;10.80;99.90
2851;DHT22;1433;49.976;8.342;2022-09-27T00:03:30;10.80;99.90
2851;DHT22;1433;49.976;8.342;2022-09-27T00:08:34;10.80;99.90
2851;DHT22;1433;49.976;8.342;2022-09-27T00:11:02;10.80;99.90
2851;DHT22;1433;49.976;8.342;2022-09-27T00:13:29;10.70;99.90
2851;DHT22;1433;49.976;8.342;2022-09-27T00:15:57;10.70;99.90
2851;DHT22;1433;49.976;8.342;2022-09-27T00:18:23;10.70;99.90
2851;DHT22;1433;49.976;8.342;2022-09-27T00:20:49;10.70;99.90
2851;DHT22;1433;49.976;8.342;2022-09-27T00:23:16;10.60;99.90
2851;DHT22;1433;49.976;8.342;2022-09-27T00:25:42;10.70;99.90
2851;DHT22;1433;49.976;8.342;2022-09-27T00:28:08;10.70;99.90
2851;DHT22;1433;49.976;8.342;2022-09-27T00:30:40;10.70;99.90
2851;DHT22;1433;49.976;8.342;2022-09-27T00:33:04;10.70;99.90
2851;DHT22;1433;49.976;8.342;2022-09-27T00:35:30;10.70;99.90
2851;DHT22;1433;49.976;8.342;2022-09-27T00:37:57;10.70;99.90
2851;DHT22;1433;49.976;8.342;2022-09-27T00:40:23;10.60;99.90
2851;DHT22;1433;49.976;8.342;2022-09-27T00:42:49;10.60;99.90
2851;DHT22;1433;49.976;8.342;2022-09-27T00:45:16;10.60;99.90
2851;DHT22;1433;49.976;8.342;2022-09-27T00:50:39;10.50;99.90
2851;DHT22;1433;49.976;8.342;2022-09-27T00:53:13;10.50;99.90
2851;DHT22;1433;49.976;8.342;2022-09-27T00:55:48;10.50;99.90
2851;DHT22;1433;49.976;8.342;2022-09-27T00:58:14;10.50;99.90
2851;DHT22;1433;49.976;8.342;2022-09-27T01:00:47;10.50;99.90
2851;DHT22;1433;49.976;8.342;2022-09-27T01:03:38;10.60;99.90
2851;DHT22;1433;49.976;8.342;2022-09-27T01:06:05;10.60;99.90
2851;DHT22;1433;49.976;8.342;2022-09-27T01:08:33;10.60;99.90
2851;DHT22;1433;49.976;8.342;2022-09-27T01:17:18;10.60;99.90
2851;DHT22;1433;49.976;8.342;2022-09-27T01:24:32;10.60;99.90
2851;DHT22;1433;49.976;8.342;2022-09-27T01:27:35;10.60;99.90
2851;DHT22;1433;49.976;8.342;2022-09-27T01:30:18;10.60;99.90
2851;DHT22;1433;49.976;8.342;2022-09-27T01:36:04;10.70;99.90
2851;DHT22;1433;49.976;8.342;2022-09-27T01:41:25;10.70;99.90
2851;DHT22;1433;49.976;8.342;2022-09-27T01:44:15;10.70;99.90
2851;DHT22;1433;49.976;8.342;2022-09-27T01:46:44;10.70;99.90
2851;DHT22;1433;49.976;8.342;2022-09-27T01:49:21;10.70;99.90
2851;DHT22;1433;49.976;8.342;2022-09-27T01:51:53;10.70;99.90
2851;DHT22;1433;49.976;8.342;2022-09-27T01:54:27;10.70;99.90
2851;DHT22;1433;49.976;8.342;2022-09-27T01:57:03;10.70;99.90
2851;DHT22;1433;49.976;8.342;2022-09-27T01:59:52;10.70;99.90
2851;DHT22;1433;49.976;8.342;2022-09-27T02:02:28;10.60;99.90
2851;DHT22;1433;49.976;8.342;2022-09-27T02:05:06;10.40;99.90
2851;DHT22;1433;49.976;8.342;2022-09-27T02:07:46;10.30;99.90
2851;DHT22;1433;49.976;8.342;2022-09-27T02:10:17;10.40;99.90
2851;DHT22;1433;49.976;8.342;2022-09-27T02:12:55;10.30;99.90
2851;DHT22;1433;49.976;8.342;2022-09-27T02:15:19;10.30;99.90
2851;DHT22;1433;49.976;8.342;2022-09-27T02:18:01;10.30;99.90
2851;DHT22;1433;49.976;8.342;2022-09-27T02:20:38;10.30;99.90
2851;DHT22;1433;49.976;8.342;2022-09-27T02:23:26;10.40;99.90
2851;DHT22;1433;49.976;8.342;2022-09-27T02:28:42;10.40;99.90
2851;DHT22;1433;49.976;8.342;2022-09-27T02:31:10;10.50;99.90
2851;DHT22;1433;49.976;8.342;2022-09-27T02:34:05;10.50;99.90
2851;DHT22;1433;49.976;8.342;2022-09-27T02:36:32;10.50;99.90
2851;DHT22;1433;49.976;8.342;2022-09-27T02:38:58;10.60;99.90
2851;DHT22;1433;49.976;8.342;2022-09-27T02:41:26;10.50;99.90
2851;DHT22;1433;49.976;8.342;2022-09-27T02:43:58;10.50;99.90
2851;DHT22;1433;49.976;8.342;2022-09-27T02:52:05;10.50;99.90
2851;DHT22;1433;49.976;8.342;2022-09-27T02:54:57;10.60;99.90
2851;DHT22;1433;49.976;8.342;2022-09-27T02:57:54;10.60;99.90
2851;DHT22;1433;49.976;8.342;2022-09-27T03:00:33;10.60;99.90
2851;DHT22;1433;49.976;8.342;2022-09-27T03:03:06;10.60;99.90
2851;DHT22;1433;49.976;8.342;2022-09-27T03:05:36;10.40;99.90
2851;DHT22;1433;49.976;8.342;2022-09-27T03:08:02;10.30;99.90
2851;DHT22;1433;49.976;8.342;2022-09-27T03:10:41;10.30;99.90
2851;DHT22;1433;49.976;8.342;2022-09-27T03:13:08;10.30;99.90
2851;DHT22;1433;49.976;8.342;2022-09-27T03:15:34;10.30;99.90
2851;DHT22;1433;49.976;8.342;2022-09-27T03:18:01;10.20;99.90
2851;DHT22;1433;49.976;8.342;2022-09-27T03:20:33;10.20;99.90
2851;DHT22;1433;49.976;8.342;2022-09-27T03:23:07;10.10;99.90
2851;DHT22;1433;49.976;8.342;2022-09-27T03:25:33;10.10;99.90
2851;DHT22;1433;49.976;8.342;2022-09-27T03:28:02;10.10;99.90
2851;DHT22;1433;49.976;8.342;2022-09-27T03:30:28;10.10;99.90
2851;DHT22;1433;49.976;8.342;2022-09-27T03:32:55;10.10;99.90
2851;DHT22;1433;49.976;8.342;2022-09-27T03:35:38;10.10;99.90
2851;DHT22;1433;49.976;8.342;2022-09-27T03:38:07;10.20;99.90
2851;DHT22;1433;49.976;8.342;2022-09-27T03:40:34;10.20;99.90
2851;DHT22;1433;49.976;8.342;2022-09-27T03:43:01;10.20;99.90
2851;DHT22;1433;49.976;8.342;2022-09-27T03:45:28;10.20;99.90
2851;DHT22;1433;49.976;8.342;2022-09-27T03:47:56;10.10;99.90
2851;DHT22;1433;49.976;8.342;2022-09-27T03:50:22;10.10;99.90
2851;DHT22;1433;49.976;8.342;2022-09-27T03:52:49;10.10;99.90
2851;DHT22;1433;49.976;8.342;2022-09-27T03:55:15;10.00;99.90
2851;DHT22;1433;49.976;8.342;2022-09-27T03:57:45;9.80;99.90
2851;DHT22;1433;49.976;8.342;2022-09-27T04:00:12;9.70;99.90
2851;DHT22;1433;49.976;8.342;2022-09-27T04:02:40;9.50;99.90
2851;DHT22;1433;49.976;8.342;2022-09-27T04:05:26;9.50;99.90
2851;DHT22;1433;49.976;8.342;2022-09-27T04:08:00;9.50;99.90
2851;DHT22;1433;49.976;8.342;2022-09-27T04:10:27;9.50;99.90
2851;DHT22;1433;49.976;8.342;2022-09-27T04:12:54;9.50;99.90
2851;DHT22;1433;49.976;8.342;2022-09-27T04:15:22;9.50;99.90
2851;DHT22;1433;49.976;8.342;2022-09-27T04:17:48;9.50;99.90
2851;DHT22;1433;49.976;8.342;2022-09-27T04:20:34;9.60;99.90
2851;DHT22;1433;49.976;8.342;2022-09-27T04:23:06;9.60;99.90
2851;DHT22;1433;49.976;8.342;2022-09-27T04:25:32;9.70;99.90
2851;DHT22;1433;49.976;8.342;2022-09-27T04:28:01;9.70;99.90
2851;DHT22;1433;49.976;8.342;2022-09-27T04:30:28;9.60;99.90
2851;DHT22;1433;49.976;8.342;2022-09-27T04:33:13;9.60;99.90
2851;DHT22;1433;49.976;8.342;2022-09-27T04:35:42;9.60;99.90
2851;DHT22;1433;49.976;8.342;2022-09-27T04:38:27;9.60;99.90
2851;DHT22;1433;49.976;8.342;2022-09-27T04:40:54;9.60;99.90
2851;DHT22;1433;49.976;8.342;2022-09-27T04:43:21;9.70;99.90
2851;DHT22;1433;49.976;8.342;2022-09-27T04:45:47;9.70;99.90
2851;DHT22;1433;49.976;8.342;2022-09-27T04:48:13;9.70;99.90
2851;DHT22;1433;49.976;8.342;2022-09-27T04:50:40;9.70;99.90
2851;DHT22;1433;49.976;8.342;2022-09-27T04:53:06;9.80;99.90
2851;DHT22;1433;49.976;8.342;2022-09-27T04:55:32;9.80;99.90
2851;DHT22;1433;49.976;8.342;2022-09-27T04:57:59;9.80;99.90
2851;DHT22;1433;49.976;8.342;2022-09-27T05:00:26;9.80;99.90
2851;DHT22;1433;49.976;8.342;2022-09-27T05:02:55;9.70;99.90
2851;DHT22;1433;49.976;8.342;2022-09-27T05:05:26;9.80;99.90
2851;DHT22;1433;49.976;8.342;2022-09-27T05:07:53;9.80;99.90
2851;DHT22;1433;49.976;8.342;2022-09-27T05:10:21;9.80;99.90
2851;DHT22;1433;49.976;8.342;2022-09-27T05:12:47;9.80;99.90
2851;DHT22;1433;49.976;8.342;2022-09-27T05:15:15;9.80;99.90
2851;DHT22;1433;49.976;8.342;2022-09-27T05:17:46;9.80;99.90
2851;DHT22;1433;49.976;8.342;2022-09-27T05:20:30;9.80;99.90
2851;DHT22;1433;49.976;8.342;2022-09-27T05:23:02;9.80;99.90
2851;DHT22;1433;49.976;8.342;2022-09-27T05:25:30;9.90;99.90
2851;DHT22;1433;49.976;8.342;2022-09-27T05:27:57;9.90;99.90
2851;DHT22;1433;49.976;8.342;2022-09-27T05:30:25;9.90;99.90
2851;DHT22;1433;49.976;8.342;2022-09-27T05:32:54;10.00;99.90
2851;DHT22;1433;49.976;8.342;2022-09-27T05:35:36;10.00;99.90
2851;DHT22;1433;49.976;8.342;2022-09-27T05:38:02;10.00;99.90
2851;DHT22;1433;49.976;8.342;2022-09-27T05:40:30;10.00;99.90
2851;DHT22;1433;49.976;8.342;2022-09-27T05:42:56;9.90;99.90
2851;DHT22;1433;49.976;8.342;2022-09-27T05:45:23;9.90;99.90
2851;DHT22;1433;49.976;8.342;2022-09-27T05:47:57;9.90;99.90
2851;DHT22;1433;49.976;8.342;2022-09-27T05:50:24;9.90;99.90
2851;DHT22;1433;49.976;8.342;2022-09-27T05:52:52;10.00;99.90
2851;DHT22;1433;49.976;8.342;2022-09-27T05:55:19;10.00;99.90
2851;DHT22;1433;49.976;8.342;2022-09-27T05:58:00;10.00;99.90
2851;DHT22;1433;49.976;8.342;2022-09-27T06:00:31;10.00;99.90
2851;DHT22;1433;49.976;8.342;2022-09-27T06:03:00;10.00;99.90
2851;DHT22;1433;49.976;8.342;2022-09-27T06:05:45;10.10;99.90
2851;DHT22;1433;49.976;8.342;2022-09-27T06:08:26;10.20;99.90
2851;DHT22;1433;49.976;8.342;2022-09-27T06:10:59;10.20;99.90
2851;DHT22;1433;49.976;8.342;2022-09-27T06:13:23;10.30;99.90
2851;DHT22;1433;49.976;8.342;2022-09-27T06:15:51;10.30;99.90
2851;DHT22;1433;49.976;8.342;2022-09-27T06:18:18;10.40;99.90
2851;DHT22;1433;49.976;8.342;2022-09-27T06:20:46;10.40;99.90
2851;DHT22;1433;49.976;8.342;2022-09-27T06:23:16;10.40;99.90
2851;DHT22;1433;49.976;8.342;2022-09-27T06:25:45;10.40;99.90
2851;DHT22;1433;49.976;8.342;2022-09-27T06:28:22;10.50;99.90
2851;DHT22;1433;49.976;8.342;2022-09-27T06:30:50;10.50;99.90
2851;DHT22;1433;49.976;8.342;2022-09-27T06:33:27;10.60;99.90
2851;DHT22;1433;49.976;8.342;2022-09-27T06:35:54;10.70;99.90
2851;DHT22;1433;49.976;8.342;2022-09-27T06:38:21;10.70;99.90
2851;DHT22;1433;49.976;8.342;2022-09-27T06:40:52;10.80;99.90
2851;DHT22;1433;49.976;8.342;2022-09-27T06:43:20;10.80;99.90
2851;DHT22;1433;49.976;8.342;2022-09-27T06:46:00;10.90;99.90
2851;DHT22;1433;49.976;8.342;2022-09-27T06:48:49;10.80;99.90
2851;DHT22;1433;49.976;8.342;2022-09-27T06:51:17;10.90;99.90
2851;DHT22;1433;49.976;8.342;2022-09-27T06:53:45;10.90;99.90
2851;DHT22;1433;49.976;8.342;2022-09-27T06:56:12;10.90;99.90
2851;DHT22;1433;49.976;8.342;2022-09-27T06:58:52;10.90;99.90
2851;DHT22;1433;49.976;8.342;2022-09-27T07:01:43;11.00;99.90
2851;DHT22;1433;49.976;8.342;2022-09-27T07:04:14;11.00;99.90
2851;DHT22;1433;49.976;8.342;2022-09-27T07:06:58;11.00;99.90
2851;DHT22;1433;49.976;8.342;2022-09-27T07:09:26;11.10;99.90
2851;DHT22;1433;49.976;8.342;2022-09-27T07:11:53;11.10;99.90
2851;DHT22;1433;49.976;8.342;2022-09-27T07:14:20;11.10;99.90
2851;DHT22;1433;49.976;8.342;2022-09-27T07:16:47;11.10;99.90
2851;DHT22;1433;49.976;8.342;2022-09-27T07:19:13;11.20;99.90
2851;DHT22;1433;49.976;8.342;2022-09-27T07:21:40;11.30;99.90
2851;DHT22;1433;49.976;8.342;2022-09-27T07:24:06;11.20;99.90
2851;DHT22;1433;49.976;8.342;2022-09-27T07:26:33;11.10;99.90
2851;DHT22;1433;49.976;8.342;2022-09-27T07:29:00;11.10;99.90
2851;DHT22;1433;49.976;8.342;2022-09-27T07:31:27;11.20;99.90
2851;DHT22;1433;49.976;8.342;2022-09-27T07:33:55;11.20;99.90
2851;DHT22;1433;49.976;8.342;2022-09-27T07:36:21;11.20;99.90
2851;DHT22;1433;49.976;8.342;2022-09-27T07:38:47;11.10;99.90
2851;DHT22;1433;49.976;8.342;2022-09-27T07:41:15;11.40;99.90
2851;DHT22;1433;49.976;8.342;2022-09-27T07:43:43;11.50;99.90
2851;DHT22;1433;49.976;8.342;2022-09-27T07:46:10;11.50;99.90
2851;DHT22;1433;49.976;8.342;2022-09-27T07:48:52;11.60;99.90
2851;DHT22;1433;49.976;8.342;2022-09-27T07:51:37;11.60;99.90
2851;DHT22;1433;49.976;8.342;2022-09-27T07:54:05;11.50;99.90
2851;DHT22;1433;49.976;8.342;2022-09-27T07:56:39;11.50;99.90
2851;DHT22;1433;49.976;8.342;2022-09-27T07:59:07;11.60;99.90
2851;DHT22;1433;49.976;8.342;2022-09-27T08:01:33;11.50;99.90
2851;DHT22;1433;49.976;8.342;2022-09-27T08:04:00;11.40;99.90
2851;DHT22;1433;49.976;8.342;2022-09-27T08:06:27;11.40;99.90
2851;DHT22;1433;49.976;8.342;2022-09-27T08:08:54;11.50;99.90
2851;DHT22;1433;49.976;8.342;2022-09-27T08:11:21;11.50;99.90
2851;DHT22;1433;49.976;8.342;2022-09-27T08:13:48;11.60;99.90
2851;DHT22;1433;49.976;8.342;2022-09-27T08:16:18;11.50;99.90
2851;DHT22;1433;49.976;8.342;2022-09-27T08:19:04;11.50;99.90
2851;DHT22;1433;49.976;8.342;2022-09-27T08:21:41;11.50;99.90
2851;DHT22;1433;49.976;8.342;2022-09-27T08:24:13;11.50;99.90
2851;DHT22;1433;49.976;8.342;2022-09-27T08:26:53;11.40;99.90
2851;DHT22;1433;49.976;8.342;2022-09-27T08:29:21;11.50;99.90
2851;DHT22;1433;49.976;8.342;2022-09-27T08:31:51;11.70;99.90
2851;DHT22;1433;49.976;8.342;2022-09-27T08:34:22;11.90;99.90
2851;DHT22;1433;49.976;8.342;2022-09-27T08:36:48;12.10;99.90
2851;DHT22;1433;49.976;8.342;2022-09-27T08:39:15;12.30;99.90
2851;DHT22;1433;49.976;8.342;2022-09-27T08:49:52;12.70;99.90
2851;DHT22;1433;49.976;8.342;2022-09-27T08:52:26;12.70;99.90
2851;DHT22;1433;49.976;8.342;2022-09-27T08:54:49;12.80;99.90
2851;DHT22;1433;49.976;8.342;2022-09-27T08:57:16;12.90;99.90
2851;DHT22;1433;49.976;8.342;2022-09-27T08:59:47;12.70;99.90
2851;DHT22;1433;49.976;8.342;2022-09-27T09:02:20;12.70;99.90
2851;DHT22;1433;49.976;8.342;2022-09-27T09:04:49;12.60;99.90
2851;DHT22;1433;49.976;8.342;2022-09-27T09:07:29;12.80;99.90
2851;DHT22;1433;49.976;8.342;2022-09-27T09:12:55;13.10;99.90
2851;DHT22;1433;49.976;8.342;2022-09-27T09:15:30;13.40;99.90
2851;DHT22;1433;49.976;8.342;2022-09-27T09:18:19;13.60;99.90
2851;DHT22;1433;49.976;8.342;2022-09-27T09:35:06;13.50;99.90
2851;DHT22;1433;49.976;8.342;2022-09-27T09:37:39;13.50;99.90
2851;DHT22;1433;49.976;8.342;2022-09-27T09:42:46;13.80;99.90
2851;DHT22;1433;49.976;8.342;2022-09-27T09:45:27;13.80;99.90
2851;DHT22;1433;49.976;8.342;2022-09-27T09:48:17;13.80;99.90
2851;DHT22;1433;49.976;8.342;2022-09-27T09:50:48;13.80;99.90
2851;DHT22;1433;49.976;8.342;2022-09-27T09:56:08;13.70;99.90
2851;DHT22;1433;49.976;8.342;2022-09-27T09:58:42;13.50;99.90
2851;DHT22;1433;49.976;8.342;2022-09-27T10:01:35;13.60;99.90
2851;DHT22;1433;49.976;8.342;2022-09-27T10:04:02;13.80;99.90
2851;DHT22;1433;49.976;8.342;2022-09-27T10:06:29;14.10;99.90
2851;DHT22;1433;49.976;8.342;2022-09-27T10:08:58;14.40;99.90
2851;DHT22;1433;49.976;8.342;2022-09-27T10:11:40;14.30;99.90
2851;DHT22;1433;49.976;8.342;2022-09-27T10:14:15;14.50;99.90
2851;DHT22;1433;49.976;8.342;2022-09-27T10:16:45;14.80;99.90
2851;DHT22;1433;49.976;8.342;2022-09-27T10:19:16;14.80;99.90
2851;DHT22;1433;49.976;8.342;2022-09-27T10:21:45;14.50;99.90
2851;DHT22;1433;49.976;8.342;2022-09-27T10:24:15;14.60;99.90
2851;DHT22;1433;49.976;8.342;2022-09-27T10:26:48;14.30;99.90
2851;DHT22;1433;49.976;8.342;2022-09-27T10:31:48;13.40;99.90
2851;DHT22;1433;49.976;8.342;2022-09-27T10:34:31;13.20;99.90
2851;DHT22;1433;49.976;8.342;2022-09-27T10:39:31;13.00;99.90
2851;DHT22;1433;49.976;8.342;2022-09-27T10:41:57;13.00;99.90
2851;DHT22;1433;49.976;8.342;2022-09-27T10:44:28;13.20;99.90
2851;DHT22;1433;49.976;8.342;2022-09-27T10:47:06;13.50;99.90
2851;DHT22;1433;49.976;8.342;2022-09-27T10:49:48;13.70;99.90
2851;DHT22;1433;49.976;8.342;2022-09-27T10:52:35;13.90;99.90
2851;DHT22;1433;49.976;8.342;2022-09-27T10:55:05;13.90;99.90
2851;DHT22;1433;49.976;8.342;2022-09-27T10:57:32;13.80;99.90
2851;DHT22;1433;49.976;8.342;2022-09-27T11:00:02;13.90;99.90
2851;DHT22;1433;49.976;8.342;2022-09-27T11:02:37;14.00;99.90
2851;DHT22;1433;49.976;8.342;2022-09-27T11:05:15;14.10;99.90
2851;DHT22;1433;49.976;8.342;2022-09-27T11:07:50;14.40;99.90
2851;DHT22;1433;49.976;8.342;2022-09-27T11:10:26;14.50;99.90
2851;DHT22;1433;49.976;8.342;2022-09-27T11:18:26;14.30;99.90
2851;DHT22;1433;49.976;8.342;2022-09-27T11:32:15;14.50;99.90
2851;DHT22;1433;49.976;8.342;2022-09-27T11:45:47;14.50;99.90
2851;DHT22;1433;49.976;8.342;2022-09-27T11:51:22;14.70;99.90
2851;DHT22;1433;49.976;8.342;2022-09-27T11:56:56;14.90;99.90
2851;DHT22;1433;49.976;8.342;2022-09-27T12:10:48;14.50;99.90
2851;DHT22;1433;49.976;8.342;2022-09-27T12:13:26;14.80;99.90
2851;DHT22;1433;49.976;8.342;2022-09-27T12:15:46;14.90;99.90
2851;DHT22;1433;49.976;8.342;2022-09-27T12:18:24;15.10;99.90
2851;DHT22;1433;49.976;8.342;2022-09-27T12:20:51;15.00;99.90
2851;DHT22;1433;49.976;8.342;2022-09-27T12:26:05;15.10;99.90
2851;DHT22;1433;49.976;8.342;2022-09-27T12:28:53;14.90;99.90
2851;DHT22;1433;49.976;8.342;2022-09-27T12:31:25;14.70;99.90
2851;DHT22;1433;49.976;8.342;2022-09-27T12:34:02;14.80;99.90
2851;DHT22;1433;49.976;8.342;2022-09-27T12:36:30;14.80;99.90
2851;DHT22;1433;49.976;8.342;2022-09-27T12:41:50;13.80;99.90
2851;DHT22;1433;49.976;8.342;2022-09-27T12:44:20;13.80;99.90
2851;DHT22;1433;49.976;8.342;2022-09-27T12:49:28;13.80;99.90
2851;DHT22;1433;49.976;8.342;2022-09-27T12:51:57;13.60;99.90
2851;DHT22;1433;49.976;8.342;2022-09-27T13:13:17;13.10;99.90
2851;DHT22;1433;49.976;8.342;2022-09-27T13:15:46;13.20;99.90
2851;DHT22;1433;49.976;8.342;2022-09-27T13:21:05;13.00;99.90
2851;DHT22;1433;49.976;8.342;2022-09-27T13:28:58;13.10;99.90
2851;DHT22;1433;49.976;8.342;2022-09-27T13:34:41;13.20;99.90
2851;DHT22;1433;49.976;8.342;2022-09-27T13:37:45;13.60;99.90
2851;DHT22;1433;49.976;8.342;2022-09-27T13:45:51;13.60;99.90
2851;DHT22;1433;49.976;8.342;2022-09-27T13:51:05;13.70;99.90
2851;DHT22;1433;49.976;8.342;2022-09-27T13:53:40;14.00;99.90
2851;DHT22;1433;49.976;8.342;2022-09-27T13:56:04;14.00;99.90
2851;DHT22;1433;49.976;8.342;2022-09-27T13:58:44;14.00;99.90
2851;DHT22;1433;49.976;8.342;2022-09-27T14:01:38;14.00;99.90
2851;DHT22;1433;49.976;8.342;2022-09-27T14:06:49;14.10;99.90
2851;DHT22;1433;49.976;8.342;2022-09-27T14:09:26;13.90;99.90
2851;DHT22;1433;49.976;8.342;2022-09-27T14:11:57;13.90;99.90
2851;DHT22;1433;49.976;8.342;2022-09-27T14:14:27;13.90;99.90
2851;DHT22;1433;49.976;8.342;2022-09-27T14:16:58;13.70;99.90
2851;DHT22;1433;49.976;8.342;2022-09-27T14:19:25;14.00;99.90
2851;DHT22;1433;49.976;8.342;2022-09-27T14:21:52;14.00;99.90
2851;DHT22;1433;49.976;8.342;2022-09-27T14:24:32;14.40;99.90
2851;DHT22;1433;49.976;8.342;2022-09-27T14:29:50;14.30;99.90
2851;DHT22;1433;49.976;8.342;2022-09-27T14:32:25;14.20;99.90
2851;DHT22;1433;49.976;8.342;2022-09-27T14:35:13;14.30;99.90
2851;DHT22;1433;49.976;8.342;2022-09-27T14:38:05;14.40;99.90
2851;DHT22;1433;49.976;8.342;2022-09-27T14:40:43;14.20;99.90
2851;DHT22;1433;49.976;8.342;2022-09-27T14:43:17;13.80;99.90
2851;DHT22;1433;49.976;8.342;2022-09-27T14:45:46;13.70;99.90
2851;DHT22;1433;49.976;8.342;2022-09-27T14:48:31;13.50;99.90
2851;DHT22;1433;49.976;8.342;2022-09-27T14:51:01;13.40;99.90
2851;DHT22;1433;49.976;8.342;2022-09-27T14:53:31;13.50;99.90
2851;DHT22;1433;49.976;8.342;2022-09-27T14:55:59;13.20;99.90
2851;DHT22;1433;49.976;8.342;2022-09-27T14:58:26;13.30;99.90
2851;DHT22;1433;49.976;8.342;2022-09-27T15:00:55;13.00;99.90
2851;DHT22;1433;49.976;8.342;2022-09-27T15:03:31;12.80;99.90
2851;DHT22;1433;49.976;8.342;2022-09-27T15:05:58;12.70;99.90
2851;DHT22;1433;49.976;8.342;2022-09-27T15:08:28;12.80;99.90
2851;DHT22;1433;49.976;8.342;2022-09-27T15:11:02;12.90;99.90
2851;DHT22;1433;49.976;8.342;2022-09-27T15:13:31;13.10;99.90
2851;DHT22;1433;49.976;8.342;2022-09-27T15:15:58;12.90;99.90
2851;DHT22;1433;49.976;8.342;2022-09-27T15:21:11;12.90;99.90
2851;DHT22;1433;49.976;8.342;2022-09-27T15:23:39;12.80;99.90
2851;DHT22;1433;49.976;8.342;2022-09-27T15:26:14;12.80;99.90
2851;DHT22;1433;49.976;8.342;2022-09-27T15:28:47;12.70;99.90
2851;DHT22;1433;49.976;8.342;2022-09-27T15:31:12;12.70;99.90
2851;DHT22;1433;49.976;8.342;2022-09-27T15:33:39;12.40;99.90
2851;DHT22;1433;49.976;8.342;2022-09-27T15:36:09;12.40;99.90
2851;DHT22;1433;49.976;8.342;2022-09-27T15:38:41;12.30;99.90
2851;DHT22;1433;49.976;8.342;2022-09-27T15:41:16;12.10;99.90
2851;DHT22;1433;49.976;8.342;2022-09-27T15:46:24;12.40;99.90
2851;DHT22;1433;49.976;8.342;2022-09-27T15:51:45;12.40;99.90
2851;DHT22;1433;49.976;8.342;2022-09-27T15:54:12;12.10;99.90
2851;DHT22;1433;49.976;8.342;2022-09-27T15:59:27;12.10;99.90
2851;DHT22;1433;49.976;8.342;2022-09-27T16:01:58;12.10;99.90
2851;DHT22;1433;49.976;8.342;2022-09-27T16:04:25;12.10;99.90
2851;DHT22;1433;49.976;8.342;2022-09-27T16:06:52;12.30;99.90
2851;DHT22;1433;49.976;8.342;2022-09-27T16:09:20;12.20;99.90
2851;DHT22;1433;49.976;8.342;2022-09-27T16:11:47;12.20;99.90
2851;DHT22;1433;49.976;8.342;2022-09-27T16:14:15;11.90;99.90
2851;DHT22;1433;49.976;8.342;2022-09-27T16:16:45;11.90;99.90
2851;DHT22;1433;49.976;8.342;2022-09-27T16:19:13;11.90;99.90
2851;DHT22;1433;49.976;8.342;2022-09-27T16:21:39;11.90;99.90
2851;DHT22;1433;49.976;8.342;2022-09-27T16:24:06;11.90;99.90
2851;DHT22;1433;49.976;8.342;2022-09-27T16:26:32;12.00;99.90
2851;DHT22;1433;49.976;8.342;2022-09-27T16:28:59;11.90;99.90
2851;DHT22;1433;49.976;8.342;2022-09-27T16:31:25;11.90;99.90
2851;DHT22;1433;49.976;8.342;2022-09-27T16:33:51;11.90;99.90
2851;DHT22;1433;49.976;8.342;2022-09-27T16:36:18;11.90;99.90
2851;DHT22;1433;49.976;8.342;2022-09-27T16:38:49;12.00;99.90
2851;DHT22;1433;49.976;8.342;2022-09-27T16:41:17;12.00;99.90
2851;DHT22;1433;49.976;8.342;2022-09-27T16:43:44;12.00;99.90
2851;DHT22;1433;49.976;8.342;2022-09-27T16:46:12;12.00;99.90
2851;DHT22;1433;49.976;8.342;2022-09-27T16:48:41;11.90;99.90
2851;DHT22;1433;49.976;8.342;2022-09-27T16:51:14;11.90;99.90
2851;DHT22;1433;49.976;8.342;2022-09-27T16:53:58;11.80;99.90
2851;DHT22;1433;49.976;8.342;2022-09-27T16:56:25;11.70;99.90
2851;DHT22;1433;49.976;8.342;2022-09-27T16:58:53;11.70;99.90
2851;DHT22;1433;49.976;8.342;2022-09-27T17:01:19;11.70;99.90
2851;DHT22;1433;49.976;8.342;2022-09-27T17:03:48;11.70;99.90
2851;DHT22;1433;49.976;8.342;2022-09-27T17:06:18;11.60;99.90
2851;DHT22;1433;49.976;8.342;2022-09-27T17:08:45;11.60;99.90
2851;DHT22;1433;49.976;8.342;2022-09-27T17:11:13;11.60;99.90
2851;DHT22;1433;49.976;8.342;2022-09-27T17:13:41;11.60;99.90
2851;DHT22;1433;49.976;8.342;2022-09-27T17:16:08;11.60;99.90
2851;DHT22;1433;49.976;8.342;2022-09-27T17:18:34;11.50;99.90
2851;DHT22;1433;49.976;8.342;2022-09-27T17:21:02;11.50;99.90
2851;DHT22;1433;49.976;8.342;2022-09-27T17:23:30;11.40;99.90
2851;DHT22;1433;49.976;8.342;2022-09-27T17:26:05;11.40;99.90
2851;DHT22;1433;49.976;8.342;2022-09-27T17:28:32;11.30;99.90
2851;DHT22;1433;49.976;8.342;2022-09-27T17:31:04;11.30;99.90
2851;DHT22;1433;49.976;8.342;2022-09-27T17:33:31;11.20;99.90
2851;DHT22;1433;49.976;8.342;2022-09-27T17:35:59;11.20;99.90
2851;DHT22;1433;49.976;8.342;2022-09-27T17:38:25;11.20;99.90
2851;DHT22;1433;49.976;8.342;2022-09-27T17:40:59;11.10;99.90
2851;DHT22;1433;49.976;8.342;2022-09-27T17:43:27;11.00;99.90
2851;DHT22;1433;49.976;8.342;2022-09-27T17:45:55;11.00;99.90
2851;DHT22;1433;49.976;8.342;2022-09-27T17:48:21;11.10;99.90
2851;DHT22;1433;49.976;8.342;2022-09-27T17:51:11;11.00;99.90
2851;DHT22;1433;49.976;8.342;2022-09-27T17:53:36;10.90;99.90
2851;DHT22;1433;49.976;8.342;2022-09-27T17:56:02;10.90;99.90
2851;DHT22;1433;49.976;8.342;2022-09-27T17:58:28;10.90;99.90
2851;DHT22;1433;49.976;8.342;2022-09-27T18:01:01;11.00;99.90
2851;DHT22;1433;49.976;8.342;2022-09-27T18:03:29;11.00;99.90
2851;DHT22;1433;49.976;8.342;2022-09-27T18:05:55;11.00;99.90
2851;DHT22;1433;49.976;8.342;2022-09-27T18:08:27;11.00;99.90
2851;DHT22;1433;49.976;8.342;2022-09-27T18:10:55;10.90;99.90
2851;DHT22;1433;49.976;8.342;2022-09-27T18:13:24;10.90;99.90
2851;DHT22;1433;49.976;8.342;2022-09-27T18:15:54;10.90;99.90
2851;DHT22;1433;49.976;8.342;2022-09-27T18:18:23;10.90;99.90
2851;DHT22;1433;49.976;8.342;2022-09-27T18:20:50;10.80;99.90
2851;DHT22;1433;49.976;8.342;2022-09-27T18:23:16;10.70;99.90
2851;DHT22;1433;49.976;8.342;2022-09-27T18:25:42;10.70;99.90
2851;DHT22;1433;49.976;8.342;2022-09-27T18:28:09;10.50;99.90
2851;DHT22;1433;49.976;8.342;2022-09-27T18:30:35;10.40;99.90
2851;DHT22;1433;49.976;8.342;2022-09-27T18:33:02;10.30;99.90
2851;DHT22;1433;49.976;8.342;2022-09-27T18:35:28;10.30;99.90
2851;DHT22;1433;49.976;8.342;2022-09-27T18:37:54;10.20;99.90
2851;DHT22;1433;49.976;8.342;2022-09-27T18:40:20;10.10;99.90
2851;DHT22;1433;49.976;8.342;2022-09-27T18:42:47;10.10;99.90
2851;DHT22;1433;49.976;8.342;2022-09-27T18:45:13;10.10;99.90
2851;DHT22;1433;49.976;8.342;2022-09-27T18:47:39;10.00;99.90
2851;DHT22;1433;49.976;8.342;2022-09-27T18:50:06;10.00;99.90
2851;DHT22;1433;49.976;8.342;2022-09-27T18:52:33;10.00;99.90
2851;DHT22;1433;49.976;8.342;2022-09-27T18:55:00;10.00;99.90
2851;DHT22;1433;49.976;8.342;2022-09-27T18:57:26;10.00;99.90
2851;DHT22;1433;49.976;8.342;2022-09-27T18:59:53;10.00;99.90
2851;DHT22;1433;49.976;8.342;2022-09-27T19:02:19;9.90;99.90
2851;DHT22;1433;49.976;8.342;2022-09-27T19:04:45;9.90;99.90
2851;DHT22;1433;49.976;8.342;2022-09-27T19:07:11;9.90;99.90
2851;DHT22;1433;49.976;8.342;2022-09-27T19:09:37;9.80;99.90
2851;DHT22;1433;49.976;8.342;2022-09-27T19:12:03;9.80;99.90
2851;DHT22;1433;49.976;8.342;2022-09-27T19:14:30;9.70;99.90
2851;DHT22;1433;49.976;8.342;2022-09-27T19:16:56;9.70;99.90
2851;DHT22;1433;49.976;8.342;2022-09-27T19:19:22;9.60;99.90
2851;DHT22;1433;49.976;8.342;2022-09-27T19:21:49;9.60;99.90
2851;DHT22;1433;49.976;8.342;2022-09-27T19:24:15;9.60;99.90